Time;durP1;ratioP1;P1;durP2;ratioP2;P2;SDS_P1;SDS_P2;PMS_P1;PMS_P2;Temp;Humidity;BMP_temperature;BMP_pressure;BME280_temperature;BME280_humidity;BME280_pressure;Samples;Min_cycle;Max_cycle;Signal;HPM_P1;HPM_P2
2022/01/13 00:00:28;;;;;;;81.65;60.58;;;-2.00;99.90;;;;;;5079024;28;20460;-65
2022/01/13 00:02:53;;;;;;;87.55;62.33;;;-2.10;99.90;;;;;;5075953;28;20110;-65
2022/01/13 00:05:26;;;;;;;78.57;52.15;;;-2.40;99.90;;;;;;5075954;28;20029;-65
2022/01/13 00:07:55;;;;;;;64.40;47.25;;;-2.60;99.90;;;;;;5089435;28;20065;-65
2022/01/13 00:10:22;;;;;;;64.05;45.28;;;-2.60;99.90;;;;;;5081822;28;20534;-66
2022/01/13 00:12:56;;;;;;;49.63;36.83;;;-2.70;99.90;;;;;;5078669;28;20039;-66
2022/01/13 00:15:26;;;;;;;36.75;28.73;;;-2.60;99.90;;;;;;5078835;28;20055;-66
2022/01/13 00:23:39;;;;;;;37.97;28.10;;;-2.50;99.90;;;;;;5079209;28;20035;-66
2022/01/13 00:25:37;;;;;;;38.17;29.85;;;-2.60;99.90;;;;;;5078578;28;20047;-65
2022/01/13 00:28:12;;;;;;;54.22;39.65;;;-2.50;99.90;;;;;;5081666;28;20032;-65
2022/01/13 00:30:39;;;;;;;41.25;31.77;;;-2.40;99.90;;;;;;5086985;28;20027;-65
2022/01/13 00:33:05;;;;;;;38.75;29.27;;;-2.40;99.90;;;;;;5076887;28;20040;-65
2022/01/13 00:35:30;;;;;;;43.00;32.10;;;-2.50;99.90;;;;;;5076176;28;20040;-65
2022/01/13 00:37:56;;;;;;;62.17;47.70;;;-2.50;99.90;;;;;;5078358;28;20515;-64
2022/01/13 00:40:22;;;;;;;79.15;60.53;;;-2.40;99.90;;;;;;5084409;28;20032;-65
2022/01/13 00:42:47;;;;;;;86.28;65.13;;;-2.30;99.90;;;;;;5086794;28;20106;-64
2022/01/13 00:45:16;;;;;;;81.63;60.33;;;-2.50;99.90;;;;;;5089365;28;20046;-64
2022/01/13 00:47:42;;;;;;;88.20;63.72;;;-2.60;99.90;;;;;;5074208;28;20031;-65
2022/01/13 00:50:08;;;;;;;76.82;57.85;;;-2.70;99.90;;;;;;5078121;28;20485;-65
2022/01/13 00:52:34;;;;;;;78.63;59.53;;;-2.70;99.90;;;;;;5078457;28;20028;-65
2022/01/13 00:55:05;;;;;;;82.47;60.42;;;-2.70;99.90;;;;;;5078208;28;20051;-65
2022/01/13 00:57:32;;;;;;;78.70;55.08;;;-2.60;99.90;;;;;;5077998;28;20048;-65
2022/01/13 00:59:59;;;;;;;78.65;54.60;;;-2.70;99.90;;;;;;5075107;28;20086;-64
2022/01/13 01:02:26;;;;;;;71.55;50.05;;;-2.80;99.90;;;;;;5075736;28;20024;-65
2022/01/13 01:04:51;;;;;;;73.28;50.15;;;-2.80;99.90;;;;;;5078127;28;20028;-65
2022/01/13 01:07:18;;;;;;;75.72;52.65;;;-2.80;99.90;;;;;;5078212;28;20414;-65
2022/01/13 01:09:49;;;;;;;71.93;50.92;;;-2.80;99.90;;;;;;5077613;28;20028;-65
2022/01/13 01:12:17;;;;;;;66.28;48.20;;;-2.60;99.90;;;;;;5074585;28;20020;-64
2022/01/13 01:14:55;;;;;;;64.78;45.70;;;-2.60;99.90;;;;;;5089733;28;20025;-65
2022/01/13 01:17:20;;;;;;;60.90;41.25;;;-2.50;99.90;;;;;;5088817;28;20032;-64
2022/01/13 01:19:48;;;;;;;58.55;39.75;;;-2.50;99.90;;;;;;5078114;28;20030;-64
2022/01/13 01:25:32;;;;;;;58.00;40.90;;;-2.50;99.90;;;;;;5077993;28;20041;-64
2022/01/13 01:27:52;;;;;;;62.75;42.00;;;-2.70;99.90;;;;;;5077577;28;20023;-64
2022/01/13 01:30:35;;;;;;;62.22;41.08;;;-2.60;99.90;;;;;;5077051;28;20036;-65
2022/01/13 01:33:02;;;;;;;62.63;41.58;;;-2.60;99.90;;;;;;5074850;28;20040;-65
2022/01/13 01:35:28;;;;;;;60.72;42.45;;;-2.70;99.90;;;;;;5074713;28;20512;-65
2022/01/13 01:37:55;;;;;;;59.45;40.83;;;-2.70;99.90;;;;;;5077563;28;20477;-65
2022/01/13 01:40:21;;;;;;;49.40;34.47;;;-2.90;99.90;;;;;;5077024;28;20067;-65
2022/01/13 01:42:48;;;;;;;49.25;35.10;;;-2.90;99.90;;;;;;5077157;28;20020;-65
2022/01/13 01:45:15;;;;;;;39.60;28.20;;;-2.90;99.90;;;;;;5074349;28;20029;-65
2022/01/13 01:47:43;;;;;;;47.45;32.72;;;-3.00;99.90;;;;;;5088867;28;20024;-65
2022/01/13 01:50:18;;;;;;;38.65;26.98;;;-2.70;99.90;;;;;;5076734;28;20032;-65
2022/01/13 01:52:48;;;;;;;32.38;24.45;;;-2.90;99.90;;;;;;5086281;28;20031;-65
2022/01/13 01:55:14;;;;;;;37.10;26.40;;;-2.90;99.90;;;;;;5080213;28;20028;-65
2022/01/13 01:57:42;;;;;;;37.17;25.17;;;-2.90;99.90;;;;;;5076912;28;20119;-66
2022/01/13 02:00:12;;;;;;;34.08;24.75;;;-2.90;99.90;;;;;;5087122;28;20055;-65
2022/01/13 02:02:39;;;;;;;33.58;24.77;;;-3.20;99.90;;;;;;5089078;28;20065;-65
2022/01/13 02:05:05;;;;;;;37.28;26.85;;;-2.90;99.90;;;;;;5076441;28;20036;-65
2022/01/13 02:07:31;;;;;;;37.85;27.15;;;-2.90;99.90;;;;;;5076963;28;20477;-65
2022/01/13 02:09:57;;;;;;;38.03;26.67;;;-2.90;99.90;;;;;;5076438;28;20031;-64
2022/01/13 02:12:37;;;;;;;38.78;28.20;;;-2.90;99.90;;;;;;5076749;28;20024;-65
2022/01/13 02:17:38;;;;;;;35.63;25.90;;;-2.70;99.90;;;;;;5074143;28;20433;-65
2022/01/13 02:20:06;;;;;;;40.40;27.20;;;-2.90;99.90;;;;;;5076360;28;20028;-65
2022/01/13 02:22:32;;;;;;;34.58;25.42;;;-2.90;99.90;;;;;;5076637;28;20066;-65
2022/01/13 02:24:58;;;;;;;38.60;26.40;;;-2.60;99.90;;;;;;5076212;28;20055;-65
2022/01/13 02:27:24;;;;;;;40.80;28.20;;;-2.70;99.90;;;;;;5076259;28;20035;-65
2022/01/13 02:29:50;;;;;;;38.22;26.77;;;-2.90;99.90;;;;;;5073726;28;20025;-65
2022/01/13 02:32:16;;;;;;;37.25;27.73;;;-3.10;99.90;;;;;;5090800;28;20024;-65
2022/01/13 02:34:42;;;;;;;35.33;25.50;;;-3.00;99.90;;;;;;5076753;28;20173;-64
2022/01/13 02:37:08;;;;;;;34.80;25.63;;;-3.10;99.90;;;;;;5076361;28;20053;-65
2022/01/13 02:39:35;;;;;;;36.88;24.88;;;-2.90;99.90;;;;;;5075135;28;20033;-65
2022/01/13 02:42:03;;;;;;;39.63;28.10;;;-2.80;99.90;;;;;;5088017;28;20370;-64
2022/01/13 02:44:30;;;;;;;44.95;31.85;;;-3.10;99.90;;;;;;5074233;28;20025;-65
2022/01/13 02:47:20;;;;;;;43.08;30.45;;;-3.00;99.90;;;;;;5075796;28;20036;-64
2022/01/13 02:49:46;;;;;;;41.45;27.95;;;-2.90;99.90;;;;;;5076880;28;20025;-64
2022/01/13 02:52:12;;;;;;;44.13;29.98;;;-3.00;99.90;;;;;;5075828;28;20039;-65
2022/01/13 02:54:37;;;;;;;42.22;30.48;;;-2.90;99.90;;;;;;5076556;28;20046;-63
2022/01/13 02:57:03;;;;;;;35.47;24.80;;;-2.80;99.90;;;;;;5074031;28;20532;-64
2022/01/13 02:59:29;;;;;;;38.50;26.98;;;-2.60;99.90;;;;;;5073995;28;20389;-64
2022/01/13 03:01:54;;;;;;;36.05;25.10;;;-2.80;99.90;;;;;;5076185;28;20108;-64
2022/01/13 03:04:22;;;;;;;38.90;26.23;;;-3.20;99.90;;;;;;5076032;28;20443;-63
2022/01/13 03:06:48;;;;;;;36.45;25.63;;;-3.20;99.90;;;;;;5075852;28;20036;-63
2022/01/13 03:09:14;;;;;;;36.90;25.33;;;-3.30;99.90;;;;;;5077777;28;20028;-64
2022/01/13 03:11:41;;;;;;;40.83;28.75;;;-3.30;99.90;;;;;;5091903;28;20111;-64
2022/01/13 03:14:10;;;;;;;36.20;25.75;;;-3.40;99.90;;;;;;5079931;28;20113;-65
2022/01/13 03:16:41;;;;;;;40.30;29.15;;;-3.30;99.90;;;;;;5079937;28;20051;-65
2022/01/13 03:19:06;;;;;;;37.13;27.15;;;-3.20;99.90;;;;;;5083633;28;20111;-65
2022/01/13 03:21:32;;;;;;;34.65;25.83;;;-3.10;99.90;;;;;;5089464;28;20103;-64
2022/01/13 03:23:58;;;;;;;37.50;25.25;;;-3.10;99.90;;;;;;5077038;28;20037;-64
2022/01/13 03:26:24;;;;;;;31.38;22.52;;;-2.90;99.90;;;;;;5077722;28;20064;-65
2022/01/13 03:28:51;;;;;;;28.92;21.65;;;-2.90;99.90;;;;;;5090187;28;20026;-65
2022/01/13 03:31:19;;;;;;;31.95;22.90;;;-2.80;99.90;;;;;;5082772;28;20442;-65
2022/01/13 03:33:46;;;;;;;32.50;22.50;;;-2.90;99.90;;;;;;5079743;28;20043;-64
2022/01/13 03:36:12;;;;;;;35.53;23.20;;;-2.80;99.90;;;;;;5078342;28;20504;-65
2022/01/13 03:38:38;;;;;;;33.10;22.50;;;-2.80;99.90;;;;;;5076356;28;20067;-65
2022/01/13 03:41:04;;;;;;;34.33;23.75;;;-2.90;99.90;;;;;;5079431;28;20025;-65
2022/01/13 03:43:31;;;;;;;33.33;23.42;;;-2.70;99.90;;;;;;5079965;28;20035;-64
2022/01/13 03:45:57;;;;;;;31.65;22.25;;;-2.70;99.90;;;;;;5078793;28;20043;-65
2022/01/13 03:48:23;;;;;;;32.75;23.52;;;-2.80;99.90;;;;;;5076797;28;20044;-65
2022/01/13 03:50:49;;;;;;;34.17;23.42;;;-2.90;99.90;;;;;;5090689;28;20028;-65
2022/01/13 03:53:29;;;;;;;31.98;22.92;;;-3.00;99.90;;;;;;5078971;28;20214;-65
2022/01/13 03:56:36;;;;;;;33.90;23.60;;;-3.00;99.90;;;;;;5089898;28;20028;-64
2022/01/13 03:59:18;;;;;;;30.73;22.15;;;-3.10;99.90;;;;;;5078749;28;20044;-65
2022/01/13 04:01:59;;;;;;;34.33;23.88;;;-3.10;99.90;;;;;;5088163;28;20404;-65
2022/01/13 04:04:25;;;;;;;33.55;24.17;;;-3.10;99.90;;;;;;5081461;28;20035;-65
2022/01/13 04:07:06;;;;;;;33.90;24.38;;;-3.30;99.90;;;;;;5080109;28;20043;-64
2022/01/13 04:09:34;;;;;;;35.95;25.25;;;-3.10;99.90;;;;;;5088917;28;20456;-65
2022/01/13 04:12:04;;;;;;;36.35;25.35;;;-2.90;99.90;;;;;;5076591;28;20082;-64
2022/01/13 04:14:44;;;;;;;38.40;27.70;;;-3.20;99.90;;;;;;5077071;28;20055;-65
2022/01/13 04:17:18;;;;;;;37.63;26.65;;;-3.20;99.90;;;;;;5078413;28;20035;-64
2022/01/13 04:19:45;;;;;;;35.40;24.52;;;-3.20;99.90;;;;;;5087388;28;20405;-65
2022/01/13 04:22:12;;;;;;;37.95;27.10;;;-3.20;99.90;;;;;;5083078;28;20060;-64
2022/01/13 04:24:43;;;;;;;37.75;26.30;;;-3.20;99.90;;;;;;5078471;28;20020;-65
2022/01/13 04:27:09;;;;;;;38.45;26.38;;;-3.20;99.90;;;;;;5075997;28;20032;-65
2022/01/13 04:29:41;;;;;;;38.72;27.25;;;-3.30;99.90;;;;;;5090460;28;20034;-65
2022/01/13 04:32:07;;;;;;;34.78;24.10;;;-3.20;99.90;;;;;;5078464;28;20029;-65
2022/01/13 04:34:34;;;;;;;41.05;27.10;;;-3.20;99.90;;;;;;5078406;28;20052;-65
2022/01/13 04:37:01;;;;;;;37.30;27.13;;;-2.90;99.90;;;;;;5081069;28;20035;-64
2022/01/13 04:39:28;;;;;;;38.55;27.48;;;-3.10;99.90;;;;;;5089370;28;20038;-65
2022/01/13 04:41:55;;;;;;;38.15;27.08;;;-3.40;99.90;;;;;;5074776;28;20024;-64
2022/01/13 04:44:22;;;;;;;39.15;27.95;;;-3.50;99.90;;;;;;5076913;28;20040;-65
2022/01/13 04:46:50;;;;;;;38.35;27.10;;;-3.50;99.90;;;;;;5078777;28;20024;-65
2022/01/13 04:49:18;;;;;;;38.85;26.67;;;-3.50;99.90;;;;;;5078070;28;20028;-65
2022/01/13 04:51:46;;;;;;;40.83;27.73;;;-3.50;99.90;;;;;;5078287;28;20036;-65
2022/01/13 04:54:12;;;;;;;37.45;25.52;;;-3.50;99.90;;;;;;5077484;28;20110;-65
2022/01/13 04:56:44;;;;;;;38.70;24.30;;;-3.30;99.90;;;;;;5074784;28;20031;-65
2022/01/13 04:59:11;;;;;;;37.85;25.80;;;-3.20;99.90;;;;;;5077959;28;20034;-65
2022/01/13 05:01:38;;;;;;;33.80;24.88;;;-3.10;99.90;;;;;;5078059;28;20032;-65
2022/01/13 05:04:06;;;;;;;39.78;28.85;;;-3.00;99.90;;;;;;5077201;28;20040;-64
2022/01/13 05:06:32;;;;;;;34.53;26.38;;;-3.00;99.90;;;;;;5076567;28;20037;-63
2022/01/13 05:08:58;;;;;;;34.85;25.55;;;-3.00;99.90;;;;;;5089997;28;20028;-65
2022/01/13 05:11:24;;;;;;;35.88;25.95;;;-3.10;99.90;;;;;;5075746;28;20401;-65
2022/01/13 05:13:50;;;;;;;33.88;24.95;;;-3.40;99.90;;;;;;5078122;28;20499;-65
2022/01/13 05:16:27;;;;;;;33.13;24.95;;;-3.60;99.90;;;;;;5082804;28;20111;-65
2022/01/13 05:18:58;;;;;;;36.95;25.40;;;-3.70;99.90;;;;;;5084480;28;20021;-65
2022/01/13 05:21:45;;;;;;;28.48;22.65;;;-3.80;99.90;;;;;;5077578;28;20040;-65
2022/01/13 05:24:10;;;;;;;32.70;23.85;;;-3.30;99.90;;;;;;5076390;28;20024;-65
2022/01/13 05:26:37;;;;;;;31.25;24.25;;;-3.50;99.90;;;;;;5073260;28;20462;-64
2022/01/13 05:29:03;;;;;;;31.17;23.92;;;-3.40;99.90;;;;;;5088735;28;20384;-65
2022/01/13 05:31:29;;;;;;;31.85;23.98;;;-3.60;99.90;;;;;;5079476;28;20064;-65
2022/01/13 05:33:55;;;;;;;31.05;24.10;;;-3.80;99.90;;;;;;5078364;28;20068;-64
2022/01/13 05:36:21;;;;;;;32.20;24.25;;;-3.80;99.90;;;;;;5077800;28;20016;-65
2022/01/13 05:38:46;;;;;;;35.42;25.27;;;-3.70;99.90;;;;;;5073070;28;20067;-65
2022/01/13 05:41:12;;;;;;;33.20;25.63;;;-3.70;99.90;;;;;;5076894;28;20021;-64
2022/01/13 05:43:38;;;;;;;33.90;23.95;;;-3.80;99.90;;;;;;5077063;28;20498;-65
2022/01/13 05:46:04;;;;;;;38.53;26.15;;;-3.90;99.90;;;;;;5079829;28;20047;-64
2022/01/13 05:48:31;;;;;;;32.80;23.33;;;-3.90;99.90;;;;;;5087381;28;20130;-65
2022/01/13 05:50:57;;;;;;;35.78;27.23;;;-3.90;99.90;;;;;;5074283;28;20500;-65
2022/01/13 05:53:23;;;;;;;49.40;39.28;;;-3.70;99.90;;;;;;5088280;28;20024;-65
2022/01/13 05:55:49;;;;;;;64.43;51.38;;;-3.60;99.90;;;;;;5086424;28;20416;-65
2022/01/13 05:58:14;;;;;;;69.78;54.25;;;-3.80;99.90;;;;;;5081025;28;20404;-65
2022/01/13 06:00:40;;;;;;;57.75;46.38;;;-3.80;99.90;;;;;;5076749;28;20542;-64
2022/01/13 06:03:06;;;;;;;57.38;46.03;;;-3.90;99.90;;;;;;5074944;28;20035;-65
2022/01/13 06:05:32;;;;;;;74.88;58.28;;;-3.70;99.90;;;;;;5074351;28;20036;-64
2022/01/13 06:07:58;;;;;;;88.53;68.65;;;-3.60;99.90;;;;;;5076392;28;20025;-64
2022/01/13 06:10:24;;;;;;;61.45;49.83;;;-3.50;99.90;;;;;;5081765;28;20035;-65
2022/01/13 06:12:51;;;;;;;64.50;52.28;;;-3.40;99.90;;;;;;5084520;28;20020;-65
2022/01/13 06:15:19;;;;;;;64.25;50.80;;;-3.50;99.90;;;;;;5075430;28;20054;-65
2022/01/13 06:17:48;;;;;;;57.30;43.30;;;-3.40;99.90;;;;;;5072512;28;20081;-65
2022/01/13 06:20:15;;;;;;;64.53;47.97;;;-3.40;99.90;;;;;;5076596;28;20033;-65
2022/01/13 06:22:42;;;;;;;57.45;43.97;;;-3.30;99.90;;;;;;5076191;28;20031;-65
2022/01/13 06:25:09;;;;;;;49.22;36.40;;;-3.60;99.90;;;;;;5079720;28;20045;-65
2022/01/13 06:27:35;;;;;;;49.80;35.95;;;-3.90;99.90;;;;;;5085784;28;20020;-64
2022/01/13 06:30:02;;;;;;;47.60;35.20;;;-3.90;99.90;;;;;;5073610;28;20067;-64
2022/01/13 06:32:28;;;;;;;68.78;50.58;;;-3.90;99.90;;;;;;5073996;28;20035;-65
2022/01/13 06:34:54;;;;;;;116.78;80.95;;;-4.00;99.90;;;;;;5086459;28;20408;-65
2022/01/13 06:37:20;;;;;;;114.35;79.88;;;-4.00;99.90;;;;;;5079491;28;20027;-64
2022/01/13 06:39:46;;;;;;;110.53;74.60;;;-4.00;99.90;;;;;;5077060;28;20081;-64
2022/01/13 06:42:12;;;;;;;93.88;64.70;;;-4.00;99.90;;;;;;5087389;28;20523;-64
2022/01/13 06:44:38;;;;;;;66.60;48.13;;;-4.10;99.90;;;;;;5072715;28;20064;-65
2022/01/13 06:47:05;;;;;;;80.13;58.08;;;-3.90;99.90;;;;;;5076021;28;20043;-64
2022/01/13 06:49:31;;;;;;;87.03;61.17;;;-3.80;99.90;;;;;;5076354;28;20115;-64
2022/01/13 06:51:57;;;;;;;91.55;64.57;;;-3.80;99.90;;;;;;5078964;28;20037;-64
2022/01/13 06:54:23;;;;;;;90.22;66.22;;;-4.00;99.90;;;;;;5076526;28;20124;-64
2022/01/13 06:56:50;;;;;;;92.28;64.85;;;-4.00;99.90;;;;;;5073120;28;20442;-63
2022/01/13 06:59:16;;;;;;;85.82;61.85;;;-4.00;99.90;;;;;;5087307;28;20031;-65
2022/01/13 07:01:43;;;;;;;74.68;56.60;;;-4.00;99.90;;;;;;5075857;28;20032;-64
2022/01/13 07:04:09;;;;;;;75.13;54.60;;;-4.10;99.90;;;;;;5079697;28;20028;-64
2022/01/13 07:06:36;;;;;;;74.32;54.03;;;-4.20;99.90;;;;;;5085456;28;20119;-65
2022/01/13 07:09:06;;;;;;;68.82;50.15;;;-4.20;99.90;;;;;;5072999;28;20100;-64
2022/01/13 07:11:32;;;;;;;68.30;48.40;;;-4.00;99.90;;;;;;5073696;28;20493;-64
2022/01/13 07:13:58;;;;;;;61.67;44.08;;;-3.90;99.90;;;;;;5086149;28;20175;-65
2022/01/13 07:16:23;;;;;;;57.33;39.30;;;-4.10;99.90;;;;;;5078661;28;20078;-65
2022/01/13 07:18:49;;;;;;;49.05;35.30;;;-4.20;99.90;;;;;;5076027;28;20529;-64
2022/01/13 07:21:16;;;;;;;51.42;36.28;;;-4.10;99.90;;;;;;5075070;28;20035;-63
2022/01/13 07:23:43;;;;;;;51.33;37.22;;;-4.10;99.90;;;;;;5072123;28;20029;-64
2022/01/13 07:26:09;;;;;;;56.25;38.97;;;-4.20;99.90;;;;;;5075528;28;20039;-64
2022/01/13 07:28:35;;;;;;;53.33;37.85;;;-4.30;99.90;;;;;;5075637;28;20499;-64
2022/01/13 07:31:01;;;;;;;53.55;39.08;;;-4.30;99.90;;;;;;5075669;28;20063;-64
2022/01/13 07:33:27;;;;;;;59.67;43.15;;;-4.30;99.90;;;;;;5075706;28;20069;-64
2022/01/13 07:35:54;;;;;;;51.97;37.17;;;-4.20;99.90;;;;;;5072212;28;20048;-64
2022/01/13 07:38:20;;;;;;;49.15;34.80;;;-4.10;99.90;;;;;;5074494;28;20027;-64
2022/01/13 07:40:46;;;;;;;52.47;36.25;;;-3.90;99.90;;;;;;5084911;28;20510;-64
2022/01/13 07:43:11;;;;;;;50.53;35.10;;;-3.80;99.90;;;;;;5083528;28;20035;-66
2022/01/13 07:45:37;;;;;;;48.47;32.80;;;-3.90;99.90;;;;;;5083735;28;20465;-65
2022/01/13 07:48:03;;;;;;;58.63;38.17;;;-4.00;99.90;;;;;;5086758;28;20033;-64
2022/01/13 07:50:29;;;;;;;56.08;35.92;;;-4.10;99.90;;;;;;5072266;28;20512;-65
2022/01/13 07:52:55;;;;;;;53.03;34.97;;;-4.00;99.90;;;;;;5085855;28;20020;-65
2022/01/13 07:55:20;;;;;;;50.75;34.97;;;-3.90;99.90;;;;;;5081495;28;20735;-65
2022/01/13 07:57:46;;;;;;;50.28;35.67;;;-3.90;99.90;;;;;;5078773;28;20033;-65
2022/01/13 08:00:13;;;;;;;50.97;34.70;;;-3.90;99.90;;;;;;5077990;28;20107;-65
2022/01/13 08:02:40;;;;;;;55.22;37.67;;;-3.70;99.90;;;;;;5075606;28;20484;-64
2022/01/13 08:05:07;;;;;;;77.30;50.78;;;-3.60;99.90;;;;;;5079057;28;20036;-64
2022/01/13 08:07:33;;;;;;;60.08;41.08;;;-3.60;99.90;;;;;;5079201;28;20384;-66
2022/01/13 08:09:58;;;;;;;52.05;37.55;;;-3.60;99.90;;;;;;5078924;28;20031;-65
2022/01/13 08:12:25;;;;;;;53.08;39.17;;;-3.70;99.90;;;;;;5078735;28;20028;-65
2022/01/13 08:14:51;;;;;;;58.58;40.67;;;-3.50;99.90;;;;;;5075061;28;20104;-66
2022/01/13 08:20:03;;;;;;;44.45;32.13;;;-2.70;99.90;;;;;;5078529;28;20066;-65
2022/01/13 08:22:28;;;;;;;38.50;30.27;;;-2.50;99.90;;;;;;5085065;28;20031;-66
2022/01/13 08:24:54;;;;;;;34.38;24.80;;;-0.90;99.90;;;;;;5085562;28;20029;-65
2022/01/13 08:27:20;;;;;;;40.72;30.67;;;-0.20;99.90;;;;;;5078520;28;20081;-64
2022/01/13 08:29:45;;;;;;;661.50;86.32;;;-0.60;99.90;;;;;;5075435;28;25500;-66
2022/01/13 08:32:11;;;;;;;64.80;41.88;;;0.90;99.90;;;;;;5089753;28;20028;-66
2022/01/13 08:34:37;;;;;;;54.45;36.13;;;2.00;99.90;;;;;;5079674;28;20334;-66
2022/01/13 08:37:03;;;;;;;50.45;37.05;;;2.30;99.90;;;;;;5078682;28;20032;-65
2022/01/13 08:39:28;;;;;;;61.38;36.40;;;2.70;99.90;;;;;;5078479;28;20508;-66
2022/01/13 08:41:54;;;;;;;78.50;43.75;;;3.20;99.90;;;;;;5074280;28;20462;-65
2022/01/13 08:44:20;;;;;;;59.55;38.05;;;2.90;99.90;;;;;;5077568;28;20021;-66
2022/01/13 08:46:45;;;;;;;51.47;33.80;;;3.40;99.90;;;;;;5078678;28;20041;-65
2022/01/13 08:49:11;;;;;;;53.20;35.75;;;4.30;99.90;;;;;;5077901;28;20117;-67
2022/01/13 08:51:38;;;;;;;30.80;21.92;;;4.70;99.90;;;;;;5077882;28;20043;-66
2022/01/13 08:54:03;;;;;;;23.77;18.38;;;5.10;99.90;;;;;;5075110;28;20024;-67
2022/01/13 08:56:29;;;;;;;27.65;20.48;;;6.20;99.90;;;;;;5088985;28;20477;-66
2022/01/13 08:58:55;;;;;;;23.92;17.77;;;6.40;99.90;;;;;;5078420;28;20047;-65
2022/01/13 09:01:21;;;;;;;21.17;16.40;;;5.40;99.90;;;;;;5083047;28;20448;-65
2022/01/13 09:03:47;;;;;;;20.23;16.00;;;4.90;99.90;;;;;;5087105;28;20024;-66
2022/01/13 09:06:13;;;;;;;21.67;15.82;;;6.20;99.90;;;;;;5076546;28;20115;-65
2022/01/13 09:08:39;;;;;;;20.10;16.23;;;5.80;99.90;;;;;;5073450;28;20059;-66
2022/01/13 09:11:05;;;;;;;32.67;21.70;;;7.00;99.90;;;;;;5088388;28;20090;-66
2022/01/13 09:13:36;;;;;;;26.10;19.20;;;8.00;99.90;;;;;;5079492;28;20477;-66
2022/01/13 09:16:04;;;;;;;20.27;15.50;;;6.70;99.90;;;;;;5076870;28;20025;-66
2022/01/13 09:18:33;;;;;;;18.90;15.15;;;6.40;99.90;;;;;;5077338;28;20020;-66
2022/01/13 09:21:00;;;;;;;25.15;18.70;;;7.00;99.90;;;;;;5074757;28;20503;-66
2022/01/13 09:23:25;;;;;;;23.10;18.17;;;6.10;99.90;;;;;;5088705;28;20036;-66
2022/01/13 09:25:52;;;;;;;18.30;14.90;;;6.10;99.90;;;;;;5086384;28;20051;-66
2022/01/13 09:28:18;;;;;;;17.50;13.55;;;8.00;99.90;;;;;;5081536;28;20048;-66
2022/01/13 09:30:44;;;;;;;15.65;12.75;;;7.90;99.90;;;;;;5077237;28;20090;-67
2022/01/13 09:33:10;;;;;;;16.80;13.55;;;8.40;99.90;;;;;;5075325;28;20078;-66
2022/01/13 09:35:36;;;;;;;16.33;13.50;;;8.60;99.90;;;;;;5074354;28;20045;-67
2022/01/13 09:38:02;;;;;;;16.48;13.15;;;9.60;99.90;;;;;;5076723;28;20031;-66
2022/01/13 09:40:28;;;;;;;16.33;13.52;;;8.90;99.90;;;;;;5083629;28;20020;-66
2022/01/13 09:42:54;;;;;;;19.77;14.88;;;9.10;99.90;;;;;;5084179;28;20417;-67
2022/01/13 09:45:20;;;;;;;16.02;12.73;;;8.60;99.90;;;;;;5076879;28;20039;-67
2022/01/13 09:47:48;;;;;;;20.70;16.10;;;8.50;99.90;;;;;;5072459;28;20025;-66
2022/01/13 09:50:18;;;;;;;20.58;17.52;;;8.40;99.90;;;;;;5077260;28;20032;-67
2022/01/13 09:52:44;;;;;;;16.55;13.38;;;7.30;99.90;;;;;;5076651;28;20029;-66
2022/01/13 09:55:12;;;;;;;18.92;15.20;;;7.90;99.90;;;;;;5077030;28;20077;-67
2022/01/13 09:57:47;;;;;;;16.77;13.90;;;8.50;99.90;;;;;;5077074;28;20028;-67
2022/01/13 10:00:16;;;;;;;16.55;13.40;;;8.50;99.90;;;;;;5075857;28;20111;-67
2022/01/13 10:02:42;;;;;;;17.60;13.60;;;7.00;99.90;;;;;;5071824;28;20397;-66
2022/01/13 10:05:08;;;;;;;16.73;13.48;;;6.80;99.90;;;;;;5076931;28;20029;-67
2022/01/13 10:07:41;;;;;;;16.13;13.50;;;8.10;99.90;;;;;;5084506;28;20381;-67
2022/01/13 10:10:24;;;;;;;15.02;12.52;;;7.70;99.90;;;;;;5082137;28;20519;-66
2022/01/13 10:13:09;;;;;;;14.70;12.35;;;8.80;99.90;;;;;;5077095;28;20374;-67
2022/01/13 10:18:42;;;;;;;14.80;11.00;;;10.50;99.90;;;;;;5084746;28;20069;-67
2022/01/13 10:21:18;;;;;;;14.18;11.57;;;10.40;99.90;;;;;;5088285;28;20028;-67
2022/01/13 10:24:09;;;;;;;13.20;11.60;;;9.20;99.90;;;;;;5072473;28;20023;-67
2022/01/13 10:26:36;;;;;;;15.75;11.98;;;8.80;99.90;;;;;;5088164;28;20093;-66
2022/01/13 10:29:05;;;;;;;13.57;12.18;;;10.30;99.90;;;;;;5076436;28;20382;-67
2022/01/13 10:31:47;;;;;;;14.15;12.25;;;9.70;99.90;;;;;;5076450;28;20500;-67
2022/01/13 10:34:29;;;;;;;14.57;12.05;;;9.10;99.90;;;;;;5076716;28;20505;-67
2022/01/13 10:37:19;;;;;;;13.70;11.55;;;10.60;99.90;;;;;;5076155;28;20105;-68
2022/01/13 10:40:02;;;;;;;13.93;12.13;;;10.30;99.90;;;;;;5071250;28;20115;-67
2022/01/13 10:45:26;;;;;;;13.45;11.55;;;9.40;99.90;;;;;;5073905;28;20032;-67
2022/01/13 10:48:09;;;;;;;13.40;10.98;;;10.30;99.90;;;;;;5071842;28;20035;-65
2022/01/13 10:50:59;;;;;;;16.73;11.65;;;10.40;99.90;;;;;;5073421;28;20103;-67
2022/01/13 10:53:29;;;;;;;13.90;10.82;;;10.80;99.90;;;;;;5087054;28;20081;-67
2022/01/13 10:56:04;;;;;;;13.63;11.30;;;10.40;99.90;;;;;;5085834;28;20025;-67
2022/01/13 10:58:33;;;;;;;11.98;10.73;;;10.30;99.90;;;;;;5084721;28;20512;-66
2022/01/13 11:00:59;;;;;;;13.82;10.95;;;10.90;99.90;;;;;;5082905;28;20059;-65
2022/01/13 11:03:30;;;;;;;14.77;12.60;;;9.90;99.90;;;;;;5075992;28;20502;-66
2022/01/13 11:05:59;;;;;;;13.10;11.13;;;9.20;99.90;;;;;;5071955;28;20067;-66
2022/01/13 11:08:32;;;;;;;13.70;11.70;;;9.40;99.90;;;;;;5073017;28;20405;-67
2022/01/13 11:11:00;;;;;;;13.65;11.88;;;9.20;99.90;;;;;;5087088;28;20024;-65
2022/01/13 11:13:28;;;;;;;14.65;11.50;;;9.50;99.90;;;;;;5078347;28;20029;-67
2022/01/13 11:15:58;;;;;;;12.60;10.90;;;8.60;99.90;;;;;;5076099;28;20032;-67
2022/01/13 11:18:27;;;;;;;13.93;10.70;;;9.30;99.90;;;;;;5074172;28;20056;-67
2022/01/13 11:20:54;;;;;;;12.73;10.93;;;9.50;99.90;;;;;;5087351;28;20028;-67
2022/01/13 11:23:20;;;;;;;13.85;12.02;;;8.70;99.90;;;;;;5074716;28;20028;-66
2022/01/13 11:25:52;;;;;;;14.05;10.82;;;8.80;99.90;;;;;;5085227;28;20403;-65
2022/01/13 11:28:19;;;;;;;12.25;10.15;;;8.40;99.90;;;;;;5081085;28;20056;-66
2022/01/13 11:30:46;;;;;;;12.25;10.13;;;9.20;99.90;;;;;;5079917;28;20105;-67
2022/01/13 11:33:12;;;;;;;11.55;10.27;;;8.40;99.90;;;;;;5078143;28;20020;-67
2022/01/13 11:35:45;;;;;;;11.88;9.70;;;9.20;99.90;;;;;;5076376;28;20044;-68
2022/01/13 11:38:13;;;;;;;10.80;9.70;;;9.50;99.90;;;;;;5090894;28;20513;-67
2022/01/13 11:40:44;;;;;;;11.00;9.82;;;10.10;99.90;;;;;;5080073;28;20035;-66
2022/01/13 11:43:25;;;;;;;12.38;9.25;;;9.90;99.90;;;;;;5079146;28;20067;-66
2022/01/13 11:45:52;;;;;;;12.35;9.65;;;10.10;99.90;;;;;;5078746;28;20036;-67
2022/01/13 11:48:30;;;;;;;10.80;8.95;;;10.30;99.90;;;;;;5079027;28;20484;-66
2022/01/13 11:51:20;;;;;;;10.43;8.52;;;9.70;99.90;;;;;;5075861;28;20039;-66
2022/01/13 11:54:00;;;;;;;11.85;9.82;;;9.90;99.90;;;;;;5075007;28;20410;-67
2022/01/13 11:56:27;;;;;;;11.10;9.18;;;10.00;99.90;;;;;;5090468;28;20012;-67
2022/01/13 11:58:53;;;;;;;11.93;9.48;;;9.80;99.90;;;;;;5079583;28;20036;-67
2022/01/13 12:01:21;;;;;;;13.43;9.38;;;10.00;99.90;;;;;;5078979;28;20536;-67
2022/01/13 12:03:56;;;;;;;11.50;9.57;;;9.90;99.90;;;;;;5078770;28;20020;-68
2022/01/13 12:06:45;;;;;;;11.32;9.20;;;9.60;99.90;;;;;;5089887;28;20055;-67
2022/01/13 12:09:23;;;;;;;10.20;8.63;;;9.90;99.90;;;;;;5077343;28;20032;-67
2022/01/13 12:11:54;;;;;;;12.10;9.35;;;10.90;99.90;;;;;;5073922;28;20020;-68
2022/01/13 12:14:22;;;;;;;10.23;8.98;;;10.70;99.90;;;;;;5090302;28;20036;-68
2022/01/13 12:16:55;;;;;;;9.50;8.50;;;11.10;99.90;;;;;;5079284;28;20115;-68
2022/01/13 12:19:32;;;;;;;11.23;8.73;;;10.60;99.90;;;;;;5078562;28;20024;-68
2022/01/13 12:22:11;;;;;;;9.27;8.07;;;10.70;99.90;;;;;;5079176;28;20043;-68
2022/01/13 12:24:52;;;;;;;11.23;8.80;;;10.30;99.90;;;;;;5078821;28;20028;-68
2022/01/13 12:27:37;;;;;;;10.98;8.70;;;11.00;99.90;;;;;;5078275;28;20032;-68
2022/01/13 12:30:13;;;;;;;9.48;8.40;;;10.90;99.90;;;;;;5075074;28;20487;-67
2022/01/13 12:32:40;;;;;;;9.63;8.13;;;10.90;99.90;;;;;;5090169;28;20106;-68
2022/01/13 12:35:09;;;;;;;11.10;8.50;;;11.10;99.90;;;;;;5078304;28;20048;-68
2022/01/13 12:37:39;;;;;;;10.40;8.35;;;11.10;99.90;;;;;;5078620;28;20029;-68
2022/01/13 12:40:24;;;;;;;10.60;8.63;;;10.80;99.90;;;;;;5077716;28;20082;-67
2022/01/13 12:42:52;;;;;;;10.15;8.13;;;10.20;99.90;;;;;;5079427;28;20035;-67
2022/01/13 12:45:28;;;;;;;9.25;8.02;;;9.70;99.90;;;;;;5090316;28;20480;-67
2022/01/13 12:48:12;;;;;;;9.75;8.75;;;10.00;99.90;;;;;;5073992;28;20044;-67
2022/01/13 12:50:46;;;;;;;10.93;8.68;;;9.70;99.90;;;;;;5074871;28;20021;-67
2022/01/13 12:53:16;;;;;;;9.88;8.30;;;9.30;99.90;;;;;;5078162;28;20573;-67
2022/01/13 12:55:53;;;;;;;9.77;8.13;;;9.60;99.90;;;;;;5086220;28;20043;-67
2022/01/13 12:58:30;;;;;;;11.13;8.82;;;10.10;99.90;;;;;;5082073;28;20029;-67